Time;durP1;ratioP1;P1;durP2;ratioP2;P2;SDS_P1;SDS_P2;PMS_P1;PMS_P2;Temp;Humidity;BMP_temperature;BMP_pressure;BME280_temperature;BME280_humidity;BME280_pressure;Samples;Min_cycle;Max_cycle;Signal;HPM_P1;HPM_P2
2022/06/25 00:00:02;;;;;;;0.00;0.00;;;21.20;99.90;;;;;;5105127;28;20024;-73
2022/06/25 00:02:28;;;;;;;0.00;0.00;;;21.60;99.90;;;;;;5102004;28;20025;-72
2022/06/25 00:07:39;;;;;;;0.00;0.00;;;21.90;99.90;;;;;;5106368;28;20314;-73
2022/06/25 00:10:07;;;;;;;0.10;0.10;;;22.10;99.90;;;;;;5100504;28;20048;-73
2022/06/25 00:12:33;;;;;;;0.00;0.00;;;22.10;99.90;;;;;;5093216;28;20543;-73
2022/06/25 00:15:07;;;;;;;0.08;0.08;;;22.20;99.90;;;;;;5091988;28;20059;-72
2022/06/25 00:17:33;;;;;;;0.00;0.00;;;22.30;99.90;;;;;;5089839;28;20017;-73
2022/06/25 00:19:59;;;;;;;0.00;0.00;;;22.00;99.90;;;;;;5076641;28;20528;-73
2022/06/25 00:22:25;;;;;;;0.00;0.00;;;22.00;99.90;;;;;;5085439;28;20474;-73
2022/06/25 00:24:51;;;;;;;0.00;0.00;;;21.90;99.90;;;;;;5092554;28;20486;-72
2022/06/25 00:27:17;;;;;;;0.00;0.00;;;22.20;99.90;;;;;;5095759;28;20085;-72
2022/06/25 00:29:43;;;;;;;0.00;0.00;;;22.40;99.90;;;;;;5092898;28;20028;-72
2022/06/25 00:32:10;;;;;;;0.00;0.00;;;22.30;99.90;;;;;;5092054;28;20069;-72
2022/06/25 00:34:37;;;;;;;0.00;0.00;;;22.30;99.90;;;;;;5090103;28;20501;-73
2022/06/25 00:37:04;;;;;;;0.03;0.03;;;22.60;99.90;;;;;;5083855;28;20017;-72
2022/06/25 00:39:30;;;;;;;0.10;0.10;;;23.20;99.90;;;;;;5077096;28;20028;-73
2022/06/25 00:41:56;;;;;;;3.97;3.78;;;24.40;99.90;;;;;;5085427;28;20363;-72
2022/06/25 00:44:22;;;;;;;0.75;0.60;;;25.50;99.90;;;;;;5084127;28;20130;-72
2022/06/25 00:46:48;;;;;;;0.00;0.00;;;26.30;99.90;;;;;;5090328;28;20074;-72
2022/06/25 00:49:14;;;;;;;0.10;0.10;;;27.40;99.90;;;;;;5086370;28;20496;-73
2022/06/25 00:51:41;;;;;;;0.20;0.20;;;28.20;98.70;;;;;;5104399;28;20479;-73
2022/06/25 00:54:09;;;;;;;0.10;0.10;;;28.90;84.00;;;;;;5104594;28;20371;-73
2022/06/25 00:56:43;;;;;;;0.10;0.10;;;29.60;77.00;;;;;;5071956;28;20017;-73
2022/06/25 00:59:12;;;;;;;0.00;0.00;;;29.90;73.80;;;;;;5076108;28;20020;-73
2022/06/25 01:01:38;;;;;;;0.00;0.00;;;30.50;68.10;;;;;;5104256;28;20032;-73
2022/06/25 01:04:04;;;;;;;0.00;0.00;;;30.90;67.50;;;;;;5074946;28;20502;-73
2022/06/25 01:06:30;;;;;;;0.00;0.00;;;31.40;63.60;;;;;;5092129;28;20031;-73
2022/06/25 01:08:57;;;;;;;0.00;0.00;;;31.80;59.60;;;;;;5090595;28;20027;-73
2022/06/25 01:11:25;;;;;;;0.00;0.00;;;32.10;58.70;;;;;;5070650;28;20024;-73
2022/06/25 01:13:52;;;;;;;0.00;0.00;;;32.80;57.30;;;;;;5071716;28;20020;-75
2022/06/25 01:16:19;;;;;;;0.22;0.22;;;33.20;53.10;;;;;;5071845;28;20020;-73
2022/06/25 01:18:47;;;;;;;0.00;0.00;;;33.50;52.70;;;;;;5077250;28;20025;-73
2022/06/25 01:21:14;;;;;;;0.00;0.00;;;33.70;52.40;;;;;;5083286;28;20056;-73
2022/06/25 01:23:41;;;;;;;0.30;0.30;;;33.80;51.30;;;;;;5087194;28;20021;-73
2022/06/25 01:26:07;;;;;;;0.00;0.00;;;34.10;51.10;;;;;;5076606;28;20050;-73
2022/06/25 01:28:33;;;;;;;0.00;0.00;;;34.30;49.90;;;;;;5091862;28;20024;-74
2022/06/25 01:30:59;;;;;;;0.10;0.10;;;34.90;49.20;;;;;;5091770;28;20031;-73
2022/06/25 01:33:25;;;;;;;0.00;0.00;;;35.00;46.00;;;;;;5089921;28;20016;-74
2022/06/25 01:35:51;;;;;;;0.00;0.00;;;34.90;46.40;;;;;;5091704;28;20024;-73
2022/06/25 01:38:17;;;;;;;0.35;0.30;;;34.90;45.80;;;;;;5091546;28;20069;-74
2022/06/25 01:40:43;;;;;;;0.00;0.00;;;35.30;45.20;;;;;;5089402;28;20032;-73
2022/06/25 01:43:09;;;;;;;0.00;0.00;;;35.00;44.80;;;;;;5071516;28;20029;-74
2022/06/25 01:45:37;;;;;;;0.00;0.00;;;34.30;46.60;;;;;;5090241;28;20019;-74
2022/06/25 01:48:06;;;;;;;0.10;0.10;;;33.40;47.50;;;;;;5090435;28;20024;-74
2022/06/25 01:50:33;;;;;;;0.00;0.00;;;32.90;48.80;;;;;;5088300;28;20040;-71
2022/06/25 01:52:59;;;;;;;0.00;0.00;;;32.60;49.40;;;;;;5091760;28;20031;-72
2022/06/25 01:55:25;;;;;;;0.00;0.00;;;32.90;50.00;;;;;;5091542;28;20078;-71
2022/06/25 01:57:52;;;;;;;0.38;0.38;;;32.90;50.40;;;;;;5089092;28;20029;-73
2022/06/25 02:00:23;;;;;;;0.13;0.10;;;32.60;53.30;;;;;;5077349;28;20174;-73
2022/06/25 02:02:50;;;;;;;0.57;0.55;;;32.00;54.80;;;;;;5089092;28;20028;-73
2022/06/25 02:05:56;;;;;;;0.85;0.85;;;31.40;57.70;;;;;;5087968;28;20028;-73
2022/06/25 02:08:05;;;;;;;3.50;3.40;;;31.80;55.10;;;;;;5075290;28;20421;-74
2022/06/25 02:10:31;;;;;;;0.00;0.00;;;31.60;57.90;;;;;;5107656;28;20624;-74
2022/06/25 02:12:57;;;;;;;0.00;0.00;;;30.50;61.30;;;;;;5074927;28;20035;-73
2022/06/25 02:15:23;;;;;;;5.22;1.98;;;31.20;59.40;;;;;;5074986;28;20049;-74
2022/06/25 02:17:49;;;;;;;0.00;0.00;;;31.60;59.00;;;;;;5074823;28;20017;-74
2022/06/25 02:20:16;;;;;;;1.45;1.45;;;31.60;57.20;;;;;;5074845;28;20425;-74
2022/06/25 02:22:42;;;;;;;0.00;0.00;;;30.90;59.70;;;;;;5083529;28;20024;-74
2022/06/25 02:25:08;;;;;;;0.00;0.00;;;30.40;58.80;;;;;;5093045;28;20634;-74
2022/06/25 02:27:34;;;;;;;0.63;0.52;;;31.40;58.80;;;;;;5078620;28;20451;-74
2022/06/25 02:30:01;;;;;;;1.40;1.33;;;33.00;55.50;;;;;;5098683;28;20478;-74
2022/06/25 02:32:29;;;;;;;0.00;0.00;;;33.30;53.30;;;;;;5093001;28;20032;-74
2022/06/25 02:34:55;;;;;;;0.00;0.00;;;33.10;52.90;;;;;;5088856;28;20043;-74
2022/06/25 02:37:21;;;;;;;2.40;2.30;;;33.30;51.40;;;;;;5095069;28;20024;-74
2022/06/25 02:39:47;;;;;;;0.20;0.20;;;32.80;53.00;;;;;;5094823;28;20148;-74
2022/06/25 02:42:13;;;;;;;2.30;0.85;;;32.50;53.30;;;;;;5095791;28;20061;-73
2022/06/25 02:44:40;;;;;;;3.97;1.48;;;32.10;53.90;;;;;;5093431;28;20035;-73
2022/06/25 02:47:06;;;;;;;1.05;1.05;;;32.00;52.90;;;;;;5094950;28;20024;-73
2022/06/25 02:49:32;;;;;;;0.10;0.10;;;31.40;54.60;;;;;;5094783;28;20024;-74
2022/06/25 02:51:58;;;;;;;3.40;0.80;;;32.10;53.10;;;;;;5096221;28;20025;-75
2022/06/25 02:54:24;;;;;;;3.55;2.13;;;31.90;55.00;;;;;;5094610;28;20024;-74
2022/06/25 02:59:42;;;;;;;0.35;0.30;;;31.00;57.20;;;;;;5097713;28;20032;-72
2022/06/25 03:02:09;;;;;;;0.10;0.10;;;30.80;57.00;;;;;;5097472;28;20039;-73
2022/06/25 03:04:35;;;;;;;0.47;0.47;;;30.60;56.60;;;;;;5096139;28;20036;-73
2022/06/25 03:07:01;;;;;;;2.75;1.65;;;30.20;57.20;;;;;;5095032;28;20111;-72
2022/06/25 03:09:27;;;;;;;2.17;0.73;;;30.20;56.80;;;;;;5095171;28;20154;-72
2022/06/25 03:11:53;;;;;;;1.23;0.77;;;30.20;55.50;;;;;;5093763;28;20035;-72
2022/06/25 03:14:19;;;;;;;1.33;1.23;;;29.80;57.60;;;;;;5092364;28;20044;-73
2022/06/25 03:16:46;;;;;;;0.50;0.50;;;29.90;58.80;;;;;;5093750;28;20026;-73
2022/06/25 03:19:12;;;;;;;1.45;0.73;;;29.90;58.20;;;;;;5106640;28;20097;-73
2022/06/25 03:21:38;;;;;;;1.90;1.77;;;30.60;57.40;;;;;;5097183;28;20030;-72
2022/06/25 03:24:05;;;;;;;0.00;0.00;;;30.50;55.40;;;;;;5096435;28;20047;-73
2022/06/25 03:26:31;;;;;;;0.35;0.35;;;30.40;55.90;;;;;;5096156;28;20024;-74
2022/06/25 03:28:57;;;;;;;0.38;0.22;;;30.50;56.10;;;;;;5094552;28;20020;-74
2022/06/25 03:31:23;;;;;;;0.30;0.20;;;30.10;55.20;;;;;;5092232;28;20020;-73
2022/06/25 03:33:50;;;;;;;2.38;0.85;;;30.20;56.10;;;;;;5092442;28;20027;-73
2022/06/25 03:36:16;;;;;;;1.20;1.10;;;30.00;55.10;;;;;;5092329;28;20382;-74
2022/06/25 03:38:42;;;;;;;0.68;0.68;;;30.10;55.30;;;;;;5096765;28;20469;-73
2022/06/25 03:43:52;;;;;;;0.90;0.52;;;30.90;54.10;;;;;;5096906;28;20031;-73
2022/06/25 03:46:18;;;;;;;0.28;0.25;;;31.00;53.20;;;;;;5093729;28;20036;-73
2022/06/25 03:48:44;;;;;;;0.68;0.60;;;31.30;53.50;;;;;;5092250;28;20032;-73
2022/06/25 03:51:11;;;;;;;0.38;0.35;;;31.10;52.10;;;;;;5093638;28;20034;-73
2022/06/25 03:53:37;;;;;;;0.40;0.38;;;31.20;52.60;;;;;;5099426;28;20023;-73
2022/06/25 03:56:03;;;;;;;4.30;0.68;;;31.30;51.80;;;;;;5091863;28;20043;-73
2022/06/25 03:58:29;;;;;;;15.80;1.92;;;31.30;52.40;;;;;;5101519;28;20028;-73
2022/06/25 04:00:55;;;;;;;0.77;0.30;;;31.30;52.00;;;;;;5095477;28;20028;-73
2022/06/25 04:03:21;;;;;;;0.10;0.10;;;30.90;52.30;;;;;;5093109;28;20020;-73
2022/06/25 04:05:47;;;;;;;7.18;3.92;;;30.80;49.30;;;;;;5093486;28;20508;-74
2022/06/25 04:08:13;;;;;;;1.45;1.35;;;30.60;50.80;;;;;;5093186;28;20031;-73
2022/06/25 04:10:40;;;;;;;0.80;0.60;;;30.60;50.70;;;;;;5094636;28;20027;-74
2022/06/25 04:13:06;;;;;;;0.68;0.47;;;30.80;51.20;;;;;;5096553;28;20462;-73
2022/06/25 04:15:33;;;;;;;0.00;0.00;;;30.70;50.10;;;;;;5094945;28;20040;-73
2022/06/25 04:17:59;;;;;;;3.40;2.50;;;30.30;51.60;;;;;;5095799;28;20027;-73
2022/06/25 04:20:25;;;;;;;0.00;0.00;;;29.80;51.90;;;;;;5098747;28;20024;-73
2022/06/25 04:22:51;;;;;;;3.25;3.05;;;29.90;51.60;;;;;;5073799;28;20055;-73
2022/06/25 04:25:18;;;;;;;9.02;1.67;;;30.20;50.90;;;;;;5074251;28;20028;-73
2022/06/25 04:30:28;;;;;;;0.20;0.20;;;30.30;51.20;;;;;;5089536;28;20096;-73
2022/06/25 04:32:54;;;;;;;0.00;0.00;;;30.40;50.60;;;;;;5092484;28;20020;-73
2022/06/25 04:35:20;;;;;;;1.30;0.77;;;30.40;51.20;;;;;;5074595;28;20435;-72
2022/06/25 04:37:46;;;;;;;0.00;0.00;;;30.70;52.60;;;;;;5092487;28;20118;-73
2022/06/25 04:40:12;;;;;;;5.20;1.65;;;30.40;53.10;;;;;;5093137;28;20513;-72
2022/06/25 04:42:38;;;;;;;1.55;1.45;;;30.50;52.40;;;;;;5092495;28;20024;-72
2022/06/25 04:45:05;;;;;;;0.00;0.00;;;30.00;52.80;;;;;;5092761;28;20036;-73
2022/06/25 04:47:31;;;;;;;4.18;2.20;;;29.70;53.60;;;;;;5105277;28;20040;-73
2022/06/25 04:49:57;;;;;;;2.75;1.10;;;30.20;52.40;;;;;;5085600;28;20082;-73
2022/06/25 04:52:23;;;;;;;2.13;2.03;;;30.50;52.40;;;;;;5093368;28;20035;-73
2022/06/25 04:54:49;;;;;;;10.70;3.13;;;30.40;51.20;;;;;;5083655;28;20272;-73
2022/06/25 04:57:15;;;;;;;11.70;2.20;;;30.50;49.10;;;;;;5081201;28;20082;-72
2022/06/25 04:59:41;;;;;;;0.20;0.20;;;30.30;49.40;;;;;;5092363;28;20032;-73
2022/06/25 05:02:07;;;;;;;0.40;0.40;;;30.50;49.30;;;;;;5088761;28;20028;-73
2022/06/25 05:04:33;;;;;;;0.00;0.00;;;30.60;48.90;;;;;;5073396;28;20036;-73
2022/06/25 05:06:59;;;;;;;17.80;16.25;;;30.70;49.30;;;;;;5093023;28;20481;-72
2022/06/25 05:09:26;;;;;;;0.00;0.00;;;30.90;50.30;;;;;;5091660;28;20020;-72
2022/06/25 05:11:53;;;;;;;0.25;0.25;;;30.80;50.90;;;;;;5090609;28;20028;-72
2022/06/25 05:14:19;;;;;;;0.10;0.10;;;31.00;51.30;;;;;;5090116;28;20044;-72
2022/06/25 05:16:45;;;;;;;3.22;0.73;;;31.00;49.10;;;;;;5100171;28;20023;-73
2022/06/25 05:19:12;;;;;;;0.28;0.17;;;30.90;50.10;;;;;;5095560;28;20024;-73
2022/06/25 05:21:38;;;;;;;0.00;0.00;;;31.10;50.70;;;;;;5073772;28;20522;-73
2022/06/25 05:24:05;;;;;;;0.10;0.10;;;31.00;50.00;;;;;;5078078;28;20020;-75
2022/06/25 05:26:32;;;;;;;0.40;0.30;;;30.60;49.70;;;;;;5066296;28;20036;-74
2022/06/25 05:28:58;;;;;;;0.00;0.00;;;30.60;49.60;;;;;;5069951;28;20509;-74
2022/06/25 05:31:24;;;;;;;0.00;0.00;;;30.80;50.00;;;;;;5074517;28;20039;-74
2022/06/25 05:33:50;;;;;;;3.00;1.15;;;31.10;49.90;;;;;;5085334;28;20226;-75
2022/06/25 05:36:17;;;;;;;1.27;1.15;;;31.00;49.80;;;;;;5091719;28;20035;-73
2022/06/25 05:38:43;;;;;;;0.00;0.00;;;30.80;49.90;;;;;;5089870;28;20020;-73
2022/06/25 05:41:09;;;;;;;0.13;0.08;;;31.00;46.60;;;;;;5096558;28;20040;-73
2022/06/25 05:43:40;;;;;;;0.00;0.00;;;30.50;48.60;;;;;;5102317;28;20046;-74
2022/06/25 05:46:07;;;;;;;0.00;0.00;;;30.50;49.00;;;;;;5087311;28;20029;-74
2022/06/25 05:48:33;;;;;;;0.00;0.00;;;30.60;49.10;;;;;;5086697;28;20103;-74
2022/06/25 05:50:59;;;;;;;0.00;0.00;;;30.70;49.10;;;;;;5092448;28;20053;-74
2022/06/25 05:53:26;;;;;;;0.00;0.00;;;30.60;49.90;;;;;;5073201;28;20153;-74
2022/06/25 05:55:53;;;;;;;0.00;0.00;;;30.30;50.60;;;;;;5092682;28;20032;-73
2022/06/25 05:58:22;;;;;;;9.63;8.65;;;30.40;50.70;;;;;;5090173;28;20020;-74
2022/06/25 06:00:48;;;;;;;0.08;0.08;;;30.40;49.90;;;;;;5092850;28;20121;-73
2022/06/25 06:03:14;;;;;;;0.00;0.00;;;30.40;49.30;;;;;;5096774;28;20167;-73
2022/06/25 06:05:40;;;;;;;1.38;1.25;;;30.50;49.20;;;;;;5089231;28;20469;-73
2022/06/25 06:08:07;;;;;;;0.00;0.00;;;30.50;48.30;;;;;;5083774;28;20038;-73
2022/06/25 06:10:34;;;;;;;0.00;0.00;;;30.50;47.70;;;;;;5108794;28;20024;-74
2022/06/25 06:13:00;;;;;;;0.00;0.00;;;30.50;48.00;;;;;;5095080;28;20030;-73
2022/06/25 06:15:26;;;;;;;0.00;0.00;;;30.60;48.40;;;;;;5094210;28;20044;-73
2022/06/25 06:17:52;;;;;;;0.03;0.03;;;30.60;47.60;;;;;;5092678;28;20119;-74
2022/06/25 06:20:18;;;;;;;0.00;0.00;;;30.30;48.00;;;;;;5087986;28;20142;-73
2022/06/25 06:22:44;;;;;;;0.40;0.40;;;30.70;47.20;;;;;;5094685;28;20148;-73
2022/06/25 06:25:10;;;;;;;0.00;0.00;;;31.10;46.40;;;;;;5077180;28;20118;-74
2022/06/25 06:27:36;;;;;;;0.00;0.00;;;31.00;46.80;;;;;;5093812;28;20043;-74
2022/06/25 06:30:03;;;;;;;0.00;0.00;;;31.10;46.70;;;;;;5078375;28;20020;-75
2022/06/25 06:32:29;;;;;;;0.20;0.20;;;31.20;46.30;;;;;;5083283;28;20028;-74
2022/06/25 06:34:55;;;;;;;0.20;0.20;;;31.30;45.60;;;;;;5089637;28;20153;-73
2022/06/25 06:37:21;;;;;;;0.20;0.15;;;31.30;45.70;;;;;;5099367;28;20470;-73
2022/06/25 06:39:47;;;;;;;0.00;0.00;;;31.00;46.10;;;;;;5073506;28;20020;-72
2022/06/25 06:42:13;;;;;;;0.05;0.05;;;30.70;45.80;;;;;;5073071;28;20020;-73
2022/06/25 06:44:39;;;;;;;0.08;0.08;;;31.00;45.10;;;;;;5071507;28;20033;-72
2022/06/25 06:47:05;;;;;;;0.55;0.43;;;31.30;44.50;;;;;;5088326;28;20024;-72
2022/06/25 06:49:31;;;;;;;0.17;0.17;;;31.30;44.00;;;;;;5096306;28;20028;-73
2022/06/25 06:51:57;;;;;;;0.20;0.15;;;31.40;43.90;;;;;;5092825;28;20027;-73
2022/06/25 06:54:23;;;;;;;0.95;0.88;;;31.20;44.00;;;;;;5086121;28;20032;-74
2022/06/25 06:56:49;;;;;;;0.00;0.00;;;30.70;44.20;;;;;;5088402;28;20020;-74
2022/06/25 06:59:15;;;;;;;0.03;0.03;;;30.80;45.20;;;;;;5076620;28;20039;-75
2022/06/25 07:01:42;;;;;;;0.00;0.00;;;30.90;43.50;;;;;;5095386;28;20058;-74
2022/06/25 07:04:08;;;;;;;0.95;0.43;;;30.80;44.10;;;;;;5092891;28;20028;-75
2022/06/25 07:06:34;;;;;;;0.00;0.00;;;31.10;45.00;;;;;;5084634;28;20393;-75
2022/06/25 07:09:00;;;;;;;0.13;0.13;;;31.20;44.50;;;;;;5089845;28;20195;-75
2022/06/25 07:11:29;;;;;;;0.05;0.05;;;31.10;44.40;;;;;;5095080;28;20482;-75
2022/06/25 07:13:57;;;;;;;0.77;0.55;;;31.10;44.10;;;;;;5100700;28;20435;-76
2022/06/25 07:16:23;;;;;;;0.05;0.00;;;31.30;43.60;;;;;;5102763;28;20076;-75
2022/06/25 07:18:50;;;;;;;0.00;0.00;;;31.70;43.70;;;;;;5087340;28;20016;-76
2022/06/25 07:21:17;;;;;;;0.47;0.47;;;32.10;43.50;;;;;;5106077;28;20016;-75
2022/06/25 07:23:43;;;;;;;0.00;0.00;;;31.90;44.90;;;;;;5095189;28;20020;-75
2022/06/25 07:26:09;;;;;;;1.55;0.10;;;31.90;45.10;;;;;;5105066;28;20489;-76
2022/06/25 07:28:35;;;;;;;0.40;0.40;;;31.90;45.50;;;;;;5113382;27;20435;-76
2022/06/25 07:31:01;;;;;;;0.00;0.00;;;31.70;45.50;;;;;;5114003;28;20053;-75
2022/06/25 07:33:29;;;;;;;7.03;2.13;;;31.50;45.10;;;;;;5105876;28;20473;-75
2022/06/25 07:35:58;;;;;;;3.00;0.88;;;31.90;44.50;;;;;;5118883;28;20024;-75
2022/06/25 07:38:24;;;;;;;3.95;3.75;;;32.10;44.20;;;;;;5128521;27;20317;-74
2022/06/25 07:40:51;;;;;;;5.03;1.05;;;32.00;44.20;;;;;;5125795;27;20143;-77
2022/06/25 07:43:17;;;;;;;2.72;2.55;;;31.70;46.50;;;;;;5118250;27;20024;-76
2022/06/25 07:45:43;;;;;;;0.20;0.20;;;31.70;46.90;;;;;;5103842;28;20050;-76
2022/06/25 07:48:09;;;;;;;0.68;0.68;;;31.90;46.40;;;;;;5100576;27;20027;-76
2022/06/25 07:53:20;;;;;;;0.00;0.00;;;32.10;45.70;;;;;;5119113;27;20036;-76
2022/06/25 07:55:46;;;;;;;1.35;1.20;;;32.00;44.70;;;;;;5096486;28;20040;-76
2022/06/25 07:58:12;;;;;;;0.05;0.03;;;31.90;45.30;;;;;;5105068;27;20019;-75
2022/06/25 08:00:39;;;;;;;0.00;0.00;;;32.20;45.10;;;;;;5114939;27;20089;-75
2022/06/25 08:03:05;;;;;;;0.00;0.00;;;32.20;43.80;;;;;;5104569;28;20020;-75
2022/06/25 08:05:35;;;;;;;0.00;0.00;;;31.90;45.10;;;;;;5088134;28;20027;-75
2022/06/25 08:08:01;;;;;;;0.00;0.00;;;32.40;44.70;;;;;;5104031;27;20027;-75
2022/06/25 08:10:27;;;;;;;0.25;0.20;;;32.60;43.80;;;;;;5085325;28;20067;-75
2022/06/25 08:12:53;;;;;;;0.00;0.00;;;32.70;43.20;;;;;;5122881;27;20079;-75
2022/06/25 08:15:20;;;;;;;0.03;0.03;;;32.30;42.50;;;;;;5112301;27;20043;-75
2022/06/25 08:17:46;;;;;;;7.90;5.18;;;32.50;42.90;;;;;;5090058;28;20049;-75
2022/06/25 08:20:13;;;;;;;0.00;0.00;;;32.50;42.20;;;;;;5082023;28;20388;-75
2022/06/25 08:22:39;;;;;;;0.00;0.00;;;32.70;41.50;;;;;;5089477;28;20492;-75
2022/06/25 08:25:09;;;;;;;0.00;0.00;;;32.70;41.40;;;;;;5096705;27;20053;-74
2022/06/25 08:27:49;;;;;;;0.30;0.30;;;32.40;42.50;;;;;;5115182;27;20030;-75
2022/06/25 08:30:20;;;;;;;5.00;0.70;;;32.60;43.60;;;;;;5110722;27;20020;-75
2022/06/25 08:32:46;;;;;;;0.25;0.00;;;33.00;42.80;;;;;;5095658;27;20019;-75
2022/06/25 08:35:12;;;;;;;0.90;0.90;;;32.70;42.30;;;;;;5091434;27;20023;-75
2022/06/25 08:37:43;;;;;;;0.00;0.00;;;32.40;42.40;;;;;;5122863;27;20102;-78
2022/06/25 08:40:09;;;;;;;0.80;0.47;;;32.40;43.00;;;;;;5094677;27;20027;-76
2022/06/25 08:42:36;;;;;;;0.20;0.10;;;32.60;43.10;;;;;;5116344;28;20023;-77
2022/06/25 08:45:03;;;;;;;0.00;0.00;;;32.50;42.40;;;;;;5093668;28;20115;-76
2022/06/25 08:47:29;;;;;;;0.10;0.10;;;32.70;42.90;;;;;;5115631;27;20019;-78
2022/06/25 08:49:56;;;;;;;0.55;0.55;;;32.90;41.80;;;;;;5108378;27;20022;-75
2022/06/25 08:52:23;;;;;;;0.00;0.00;;;33.20;40.60;;;;;;5108954;27;20027;-74
2022/06/25 08:54:51;;;;;;;0.00;0.00;;;33.10;40.90;;;;;;5113359;27;20023;-74
2022/06/25 08:57:17;;;;;;;0.00;0.00;;;33.20;40.20;;;;;;5108276;27;20034;-75
2022/06/25 08:59:43;;;;;;;0.28;0.20;;;33.10;40.50;;;;;;5109458;27;20019;-75
2022/06/25 09:02:10;;;;;;;0.00;0.00;;;33.20;39.90;;;;;;5115047;27;20034;-77
2022/06/25 09:04:36;;;;;;;0.00;0.00;;;33.30;40.00;;;;;;5111402;28;20019;-74
2022/06/25 09:07:20;;;;;;;0.15;0.15;;;33.50;39.10;;;;;;5094819;28;20051;-75
2022/06/25 09:09:51;;;;;;;1.17;0.10;;;33.40;39.30;;;;;;5109976;28;20047;-75
2022/06/25 09:12:18;;;;;;;0.00;0.00;;;32.90;40.50;;;;;;5109711;28;20027;-75
2022/06/25 09:14:45;;;;;;;0.00;0.00;;;32.90;40.00;;;;;;5110618;28;20078;-75
2022/06/25 09:17:14;;;;;;;0.20;0.10;;;32.70;40.30;;;;;;5112684;28;20977;-75
2022/06/25 09:19:43;;;;;;;0.10;0.10;;;32.70;40.00;;;;;;5109700;28;20012;-75
2022/06/25 09:22:17;;;;;;;0.47;0.47;;;32.60;40.20;;;;;;5101548;28;20028;-75
2022/06/25 09:24:53;;;;;;;0.00;0.00;;;33.20;39.80;;;;;;5092426;28;20126;-75
2022/06/25 09:27:36;;;;;;;0.00;0.00;;;33.70;38.10;;;;;;5126479;27;20467;-75
2022/06/25 09:30:13;;;;;;;0.00;0.00;;;33.70;37.20;;;;;;5092591;28;20028;-75
2022/06/25 09:32:48;;;;;;;0.00;0.00;;;33.90;37.30;;;;;;5096209;28;20386;-75
2022/06/25 09:35:50;;;;;;;0.00;0.00;;;33.60;37.10;;;;;;5082157;28;20482;-75
2022/06/25 09:38:20;;;;;;;0.00;0.00;;;33.70;36.50;;;;;;5088867;28;20519;-75
2022/06/25 09:40:54;;;;;;;0.00;0.00;;;34.10;35.60;;;;;;5111458;28;20030;-75
2022/06/25 09:43:29;;;;;;;0.00;0.00;;;34.30;35.80;;;;;;5106585;28;20055;-75
2022/06/25 09:46:05;;;;;;;0.20;0.20;;;34.10;35.10;;;;;;5105144;28;20039;-75
2022/06/25 09:48:33;;;;;;;0.00;0.00;;;34.20;36.10;;;;;;5092606;28;20452;-74
2022/06/25 09:51:23;;;;;;;0.00;0.00;;;34.30;34.80;;;;;;5112081;28;20515;-74
2022/06/25 09:53:51;;;;;;;0.00;0.00;;;34.00;35.00;;;;;;5098655;28;20128;-73
2022/06/25 09:56:23;;;;;;;0.00;0.00;;;33.70;35.40;;;;;;5091064;28;20028;-74
2022/06/25 09:58:50;;;;;;;0.00;0.00;;;34.00;36.10;;;;;;5102307;28;20077;-74
2022/06/25 10:01:18;;;;;;;0.00;0.00;;;34.10;35.70;;;;;;5111300;28;20028;-75
2022/06/25 10:03:46;;;;;;;0.00;0.00;;;34.10;34.70;;;;;;5105204;28;20027;-74
2022/06/25 10:06:16;;;;;;;0.00;0.00;;;34.20;34.60;;;;;;5112230;28;20071;-74
2022/06/25 10:08:49;;;;;;;0.00;0.00;;;34.40;34.20;;;;;;5091181;28;20065;-75
2022/06/25 10:11:19;;;;;;;13.60;12.52;;;34.50;35.20;;;;;;5107080;28;20107;-75
2022/06/25 10:13:47;;;;;;;0.00;0.00;;;34.50;35.00;;;;;;5090666;28;20030;-75
2022/06/25 10:16:16;;;;;;;1.20;1.20;;;34.60;35.20;;;;;;5108803;28;20119;-75
2022/06/25 10:18:43;;;;;;;0.00;0.00;;;34.00;34.80;;;;;;5110738;28;20514;-75
2022/06/25 10:21:10;;;;;;;0.00;0.00;;;33.60;35.40;;;;;;5104815;28;20064;-74
2022/06/25 10:23:38;;;;;;;0.00;0.00;;;33.50;36.10;;;;;;5085867;28;20077;-74
2022/06/25 10:26:05;;;;;;;0.00;0.00;;;33.70;36.50;;;;;;5087750;28;20028;-74
2022/06/25 10:28:35;;;;;;;0.00;0.00;;;34.00;35.90;;;;;;5101431;28;20035;-76
2022/06/25 10:31:05;;;;;;;0.00;0.00;;;34.00;36.60;;;;;;5102688;27;20050;-75
2022/06/25 10:33:52;;;;;;;0.00;0.00;;;34.10;35.50;;;;;;5101801;28;20042;-75
2022/06/25 10:36:18;;;;;;;0.00;0.00;;;34.20;35.70;;;;;;5102266;28;20416;-75
2022/06/25 10:38:44;;;;;;;0.00;0.00;;;34.30;36.00;;;;;;5119647;27;20097;-75
2022/06/25 10:43:58;;;;;;;0.13;0.13;;;34.20;35.00;;;;;;5096971;27;20024;-76
2022/06/25 10:46:31;;;;;;;0.00;0.00;;;34.00;34.80;;;;;;5106125;28;20034;-76
2022/06/25 10:49:02;;;;;;;0.00;0.00;;;34.00;36.50;;;;;;5110612;27;20485;-76
2022/06/25 10:51:35;;;;;;;0.05;0.05;;;33.60;39.20;;;;;;5102748;28;20470;-76
2022/06/25 10:54:03;;;;;;;0.00;0.00;;;33.40;41.20;;;;;;5094926;28;20030;-76
2022/06/25 10:56:43;;;;;;;0.32;0.32;;;33.40;40.70;;;;;;5105323;28;20161;-76
2022/06/25 10:59:09;;;;;;;0.00;0.00;;;33.40;41.10;;;;;;5095232;28;20035;-76
2022/06/25 11:01:35;;;;;;;0.00;0.00;;;33.40;40.20;;;;;;5092972;28;20024;-76
2022/06/25 11:04:03;;;;;;;0.00;0.00;;;33.30;41.10;;;;;;5093491;28;20031;-76
2022/06/25 11:06:34;;;;;;;0.35;0.25;;;33.30;41.30;;;;;;5110197;27;20420;-76
2022/06/25 11:09:10;;;;;;;0.28;0.25;;;33.20;40.30;;;;;;5111601;27;20023;-76
2022/06/25 11:11:37;;;;;;;0.00;0.00;;;33.10;41.10;;;;;;5099688;28;20110;-76
2022/06/25 11:14:12;;;;;;;0.08;0.08;;;33.00;41.50;;;;;;5091492;28;20023;-76
2022/06/25 11:16:38;;;;;;;1.20;1.20;;;33.20;41.30;;;;;;5109309;28;20101;-77
2022/06/25 11:19:04;;;;;;;0.10;0.10;;;33.40;41.30;;;;;;5112277;27;20062;-77
2022/06/25 11:21:42;;;;;;;0.10;0.10;;;33.30;41.00;;;;;;5111455;27;20020;-76
2022/06/25 11:24:17;;;;;;;1.17;0.35;;;33.20;40.90;;;;;;5086127;28;20031;-77
2022/06/25 11:29:53;;;;;;;0.00;0.00;;;33.20;41.60;;;;;;5106352;28;20448;-79
2022/06/25 11:32:22;;;;;;;0.00;0.00;;;33.00;42.20;;;;;;5110646;27;20119;-78
2022/06/25 11:35:14;;;;;;;0.00;0.00;;;33.00;42.80;;;;;;5113395;28;20027;-77
2022/06/25 11:37:40;;;;;;;0.15;0.15;;;32.90;42.90;;;;;;5091991;28;20038;-77
2022/06/25 11:40:16;;;;;;;0.60;0.20;;;32.90;43.10;;;;;;5106009;28;20028;-77
2022/06/25 11:42:43;;;;;;;0.00;0.00;;;33.00;43.70;;;;;;5096872;28;20385;-76
2022/06/25 11:45:10;;;;;;;0.00;0.00;;;32.70;44.10;;;;;;5108105;27;20032;-78
2022/06/25 11:47:38;;;;;;;0.55;0.55;;;32.80;44.60;;;;;;5091001;28;20066;-78
2022/06/25 11:50:11;;;;;;;0.00;0.00;;;32.60;43.80;;;;;;5110913;27;20028;-75
2022/06/25 11:52:44;;;;;;;1.55;0.65;;;32.60;44.70;;;;;;5097986;27;20107;-75
2022/06/25 11:55:11;;;;;;;0.47;0.20;;;32.60;43.80;;;;;;5089102;28;20400;-74
2022/06/25 11:57:42;;;;;;;0.00;0.00;;;32.70;43.40;;;;;;5109738;28;20023;-74
2022/06/25 12:00:13;;;;;;;0.00;0.00;;;32.50;43.90;;;;;;5088319;28;20020;-75
2022/06/25 12:02:43;;;;;;;0.00;0.00;;;32.60;43.30;;;;;;5078352;28;20028;-76
2022/06/25 12:05:11;;;;;;;0.00;0.00;;;32.60;44.10;;;;;;5121598;27;20023;-75
2022/06/25 12:07:37;;;;;;;0.00;0.00;;;32.60;44.90;;;;;;5122090;27;20098;-77
2022/06/25 12:10:10;;;;;;;0.15;0.15;;;32.30;44.10;;;;;;5099380;28;20067;-77
2022/06/25 12:12:40;;;;;;;0.03;0.03;;;32.30;43.80;;;;;;5112995;27;20047;-76
2022/06/25 12:15:11;;;;;;;0.00;0.00;;;32.20;44.00;;;;;;5102355;28;20789;-75
2022/06/25 12:17:39;;;;;;;0.00;0.00;;;32.20;44.40;;;;;;5103254;28;20474;-76
2022/06/25 12:20:16;;;;;;;0.00;0.00;;;32.10;44.20;;;;;;5082546;27;20378;-77
2022/06/25 12:22:49;;;;;;;0.00;0.00;;;32.30;42.90;;;;;;5096896;28;20024;-77
2022/06/25 12:25:36;;;;;;;50.85;21.45;;;32.40;43.80;;;;;;5087948;28;20031;-76
2022/06/25 12:28:02;;;;;;;0.93;0.93;;;32.20;44.30;;;;;;5104400;28;20051;-76
2022/06/25 12:30:32;;;;;;;0.00;0.00;;;32.10;44.20;;;;;;5097423;28;20024;-76
2022/06/25 12:33:15;;;;;;;0.00;0.00;;;31.90;44.70;;;;;;5101204;28;20469;-76
2022/06/25 12:35:43;;;;;;;0.00;0.00;;;31.60;46.40;;;;;;5088807;28;20049;-76
2022/06/25 12:38:10;;;;;;;0.00;0.00;;;31.50;46.80;;;;;;5102409;28;20028;-75
2022/06/25 12:40:44;;;;;;;0.00;0.00;;;31.80;44.60;;;;;;5090901;28;20035;-76
2022/06/25 12:43:11;;;;;;;0.17;0.17;;;32.10;43.80;;;;;;5091383;28;20024;-76
2022/06/25 12:45:39;;;;;;;0.00;0.00;;;32.10;43.80;;;;;;5100429;27;20424;-76
2022/06/25 12:48:09;;;;;;;0.10;0.00;;;32.20;43.40;;;;;;5113561;27;20421;-76
2022/06/25 12:50:39;;;;;;;0.35;0.35;;;32.20;43.60;;;;;;5115951;27;20028;-76
2022/06/25 12:53:11;;;;;;;0.22;0.22;;;32.20;44.00;;;;;;5126810;27;20465;-77
2022/06/25 12:55:39;;;;;;;0.00;0.00;;;32.30;44.20;;;;;;5115990;27;20049;-76
2022/06/25 12:58:08;;;;;;;0.00;0.00;;;32.10;44.60;;;;;;5103888;27;20461;-76
2022/06/25 13:00:37;;;;;;;0.00;0.00;;;32.20;45.10;;;;;;5114060;27;20047;-76
2022/06/25 13:03:07;;;;;;;0.00;0.00;;;32.30;44.70;;;;;;5112498;27;20017;-76
2022/06/25 13:05:34;;;;;;;0.00;0.00;;;32.20;44.10;;;;;;5088324;28;20036;-76
2022/06/25 13:08:00;;;;;;;0.30;0.30;;;32.20;43.20;;;;;;5085477;28;20073;-76